createdAt,value
2016-09-01T00:00:12.748Z,44.7
2016-09-01T00:00:47.043Z,44.5
2016-09-01T00:01:21.354Z,44.7
2016-09-01T00:01:55.667Z,44.6
2016-09-01T00:02:29.947Z,44.5
2016-09-01T00:03:04.238Z,44.5
2016-09-01T00:03:38.530Z,44.5
2016-09-01T00:04:12.814Z,44.5
2016-09-01T00:04:47.100Z,44.5
2016-09-01T00:05:21.399Z,44.5
2016-09-01T00:05:55.787Z,44.5
2016-09-01T00:06:30.078Z,44.79
2016-09-01T00:07:04.399Z,44.89
2016-09-01T00:07:38.699Z,44.79
2016-09-01T00:08:12.996Z,44.6
2016-09-01T00:08:47.287Z,44.7
2016-09-01T00:09:21.589Z,44.6
2016-09-01T00:09:55.889Z,44.79
2016-09-01T00:10:30.186Z,44.7
2016-09-01T00:11:04.490Z,44.6
2016-09-01T00:11:38.781Z,44.7
2016-09-01T00:12:13.086Z,44.7
2016-09-01T00:12:47.393Z,44.87
2016-09-01T00:13:21.689Z,44.7
2016-09-01T00:13:56.034Z,44.7
2016-09-01T00:14:30.319Z,44.6
2016-09-01T00:15:04.623Z,44.79
2016-09-01T00:15:38.902Z,44.67
2016-09-01T00:16:13.205Z,44.98
2016-09-01T00:16:47.506Z,44.5
2016-09-01T00:17:21.813Z,44.77
2016-09-01T00:17:56.129Z,44.89
2016-09-01T00:18:30.431Z,44.98
2016-09-01T00:19:04.720Z,44.57
2016-09-01T00:19:39.008Z,44.89
2016-09-01T00:20:13.299Z,44.89
2016-09-01T00:20:48.081Z,45.08
2016-09-01T00:21:22.375Z,44.6
2016-09-01T00:21:56.661Z,44.89
2016-09-01T00:22:30.966Z,44.57
2016-09-01T00:23:05.238Z,44.5
2016-09-01T00:23:39.528Z,44.96
2016-09-01T00:24:13.807Z,44.96
2016-09-01T00:24:48.091Z,45.08
2016-09-01T00:25:22.396Z,44.48
2016-09-01T00:25:56.718Z,44.87
2016-09-01T00:26:31.002Z,44.87
2016-09-01T00:27:05.295Z,44.89
2016-09-01T00:27:39.588Z,44.96
2016-09-01T00:28:13.878Z,44.96
2016-09-01T00:28:48.181Z,44.87
2016-09-01T00:29:22.484Z,44.96
2016-09-01T00:29:56.765Z,45.06
2016-09-01T00:30:31.068Z,45.06
2016-09-01T00:31:05.354Z,44.96
2016-09-01T00:31:39.663Z,44.87
2016-09-01T00:32:13.968Z,45.16
2016-09-01T00:32:48.282Z,45.16
2016-09-01T00:33:22.555Z,45.25
2016-09-01T00:33:56.862Z,45.16
2016-09-01T00:34:31.150Z,44.87
2016-09-01T00:35:05.455Z,45.25
2016-09-01T00:35:39.750Z,45.16
2016-09-01T00:36:14.716Z,45.25
2016-09-01T00:36:49.004Z,45.16
2016-09-01T00:37:23.319Z,45.25
2016-09-01T00:37:57.610Z,44.87
2016-09-01T00:38:31.909Z,44.96
2016-09-01T00:39:06.210Z,45.16
2016-09-01T00:39:40.506Z,45.25
2016-09-01T00:40:14.787Z,44.96
2016-09-01T00:40:49.075Z,45.35
2016-09-01T00:41:23.376Z,44.87
2016-09-01T00:41:57.679Z,44.96
2016-09-01T00:42:32.003Z,44.96
2016-09-01T00:43:06.298Z,44.96
2016-09-01T00:43:40.585Z,44.96
2016-09-01T00:44:14.883Z,44.96
2016-09-01T00:44:49.162Z,45.06
2016-09-01T00:45:23.449Z,44.77
2016-09-01T00:45:57.793Z,45.25
2016-09-01T00:46:32.093Z,45.35
2016-09-01T00:47:06.389Z,44.87
2016-09-01T00:47:40.706Z,45.35
2016-09-01T00:48:14.989Z,45.35
2016-09-01T00:48:49.284Z,45.45
2016-09-01T00:49:23.562Z,44.77
2016-09-01T00:49:57.855Z,45.35
2016-09-01T00:50:32.140Z,45.35
2016-09-01T00:51:06.431Z,44.77
2016-09-01T00:51:40.715Z,45.35
2016-09-01T00:52:15.020Z,44.77
2016-09-01T00:52:49.323Z,44.77
2016-09-01T00:53:23.610Z,44.77
2016-09-01T00:53:57.909Z,45.45
2016-09-01T00:54:32.200Z,44.77
2016-09-01T00:55:06.490Z,45.45
2016-09-01T00:55:40.778Z,44.87
2016-09-01T00:56:15.080Z,45.35
2016-09-01T00:56:49.370Z,45.35
2016-09-01T00:57:23.666Z,45.35
2016-09-01T00:57:57.966Z,44.77
2016-09-01T00:58:32.270Z,45.35
2016-09-01T00:59:06.564Z,44.67
2016-09-01T00:59:40.871Z,45.35
2016-09-01T01:00:15.164Z,44.67
2016-09-01T01:00:49.485Z,45.45
2016-09-01T01:01:23.781Z,44.65
2016-09-01T01:01:58.081Z,44.67
2016-09-01T01:02:32.385Z,44.56
2016-09-01T01:03:06.692Z,44.67
2016-09-01T01:03:41.008Z,44.67
2016-09-01T01:04:15.302Z,45.35
2016-09-01T01:04:49.584Z,45.35
2016-09-01T01:05:23.885Z,44.56
2016-09-01T01:05:58.192Z,44.77
2016-09-01T01:06:32.490Z,44.67
2016-09-01T01:07:06.778Z,45.25
2016-09-01T01:07:41.096Z,45.64
2016-09-01T01:08:15.403Z,45.35
2016-09-01T01:08:49.687Z,45.35
2016-09-01T01:09:23.979Z,44.48
2016-09-01T01:09:58.274Z,44.96
2016-09-01T01:10:32.561Z,45.25
2016-09-01T01:11:06.876Z,45.45
2016-09-01T01:11:41.159Z,45.35
2016-09-01T01:12:15.455Z,45.54
2016-09-01T01:12:49.753Z,44.87
2016-09-01T01:13:24.049Z,45.33
2016-09-01T01:13:58.333Z,44.87
2016-09-01T01:14:33.541Z,45.23
2016-09-01T01:15:07.876Z,44.67
2016-09-01T01:15:42.164Z,45.64
2016-09-01T01:16:16.487Z,45.42
2016-09-01T01:16:50.765Z,45.62
2016-09-01T01:17:25.050Z,44.75
2016-09-01T01:17:59.358Z,45.33
2016-09-01T01:18:33.641Z,44.87
2016-09-01T01:19:07.931Z,44.94
2016-09-01T01:19:42.240Z,45.04
2016-09-01T01:20:16.547Z,45.52
2016-09-01T01:20:50.917Z,45.52
2016-09-01T01:21:25.217Z,44.94
2016-09-01T01:21:59.530Z,44.84
2016-09-01T01:22:33.810Z,45.04
2016-09-01T01:23:08.091Z,45.52
2016-09-01T01:23:42.365Z,45.23
2016-09-01T01:24:16.674Z,45.33
2016-09-01T01:24:50.985Z,44.94
2016-09-01T01:25:25.258Z,44.94
2016-09-01T01:25:59.550Z,45.04
2016-09-01T01:26:33.843Z,45.33
2016-09-01T01:27:08.138Z,44.84
2016-09-01T01:27:42.405Z,44.94
2016-09-01T01:28:16.727Z,45.23
2016-09-01T01:28:51.035Z,44.94
2016-09-01T01:29:25.345Z,45.04
2016-09-01T01:29:59.632Z,45.14
2016-09-01T01:30:33.977Z,45.14
2016-09-01T01:31:08.270Z,45.14
2016-09-01T01:31:42.567Z,45.04
2016-09-01T01:32:16.864Z,45.14
2016-09-01T01:32:51.168Z,45.23
2016-09-01T01:33:25.481Z,45.14
2016-09-01T01:33:59.794Z,45.14
2016-09-01T01:34:34.111Z,45.04
2016-09-01T01:35:08.400Z,44.94
2016-09-01T01:35:42.679Z,45.14
2016-09-01T01:36:17.168Z,45.14
2016-09-01T01:36:51.469Z,45.62
2016-09-01T01:37:25.792Z,45.52
2016-09-01T01:38:00.071Z,45.23
2016-09-01T01:38:34.375Z,45.14
2016-09-01T01:39:08.650Z,45.14
2016-09-01T01:39:42.931Z,45.23
2016-09-01T01:40:17.221Z,45.14
2016-09-01T01:40:51.526Z,45.52
2016-09-01T01:41:25.808Z,45.62
2016-09-01T01:42:00.114Z,45.52
2016-09-01T01:42:34.398Z,45.52
2016-09-01T01:43:08.705Z,45.52
2016-09-01T01:43:43.000Z,45.62
2016-09-01T01:44:17.292Z,45.72
2016-09-01T01:44:51.591Z,45.62
2016-09-01T01:45:25.879Z,45.42
2016-09-01T01:46:00.172Z,45.62
2016-09-01T01:46:34.494Z,45.52
2016-09-01T01:47:08.800Z,45.04
2016-09-01T01:47:43.101Z,45.52
2016-09-01T01:48:17.412Z,45.04
2016-09-01T01:48:51.699Z,45.04
2016-09-01T01:49:26.000Z,45.52
2016-09-01T01:50:00.311Z,45.14
2016-09-01T01:50:34.606Z,45.52
2016-09-01T01:51:08.910Z,45.23
2016-09-01T01:51:43.210Z,45.14
2016-09-01T01:52:17.505Z,45.62
2016-09-01T01:52:51.797Z,45.14
2016-09-01T01:53:26.091Z,45.42
2016-09-01T01:54:00.378Z,45.52
2016-09-01T01:54:34.681Z,45.23
2016-09-01T01:55:08.975Z,45.42
2016-09-01T01:55:43.284Z,45.23
2016-09-01T01:56:17.584Z,45.33
2016-09-01T01:56:51.876Z,45.42
2016-09-01T01:57:26.168Z,45.72
2016-09-01T01:58:00.453Z,45.52
2016-09-01T01:58:34.749Z,45.42
2016-09-01T01:59:09.082Z,45.33
2016-09-01T01:59:43.373Z,45.23
2016-09-01T02:00:17.708Z,45.33
2016-09-01T02:00:52.627Z,45.52
2016-09-01T02:01:26.924Z,45.42
2016-09-01T02:02:01.223Z,45.42
2016-09-01T02:02:35.492Z,45.42
2016-09-01T02:03:09.783Z,45.33
2016-09-01T02:03:44.080Z,45.42
2016-09-01T02:04:18.377Z,45.52
2016-09-01T02:04:52.669Z,45.42
2016-09-01T02:05:26.939Z,45.33
2016-09-01T02:06:01.249Z,45.52
2016-09-01T02:06:35.572Z,45.23
2016-09-01T02:07:09.870Z,45.52
2016-09-01T02:07:44.152Z,45.81
2016-09-01T02:08:18.454Z,45.33
2016-09-01T02:08:52.748Z,45.52
2016-09-01T02:09:27.045Z,45.42
2016-09-01T02:10:01.365Z,45.52
2016-09-01T02:10:35.650Z,45.52
2016-09-01T02:11:09.946Z,45.52
2016-09-01T02:11:44.228Z,45.14
2016-09-01T02:12:18.518Z,45.23
2016-09-01T02:12:52.803Z,45.52
2016-09-01T02:13:27.108Z,45.23
2016-09-01T02:14:01.403Z,45.42
2016-09-01T02:14:35.716Z,45.52
2016-09-01T02:15:10.021Z,45.42
2016-09-01T02:15:44.592Z,45.42
2016-09-01T02:16:18.893Z,45.21
2016-09-01T02:16:53.174Z,45.23
2016-09-01T02:17:27.463Z,45.21
2016-09-01T02:18:01.757Z,45.52
2016-09-01T02:18:36.042Z,45.21
2016-09-01T02:19:10.336Z,45.5
2016-09-01T02:19:44.632Z,45.14
2016-09-01T02:20:18.922Z,45.14
2016-09-01T02:20:53.215Z,45.23
2016-09-01T02:21:27.494Z,45.42
2016-09-01T02:22:01.781Z,45.52
2016-09-01T02:22:36.093Z,45.59
2016-09-01T02:23:10.393Z,45.72
2016-09-01T02:23:44.693Z,45.11
2016-09-01T02:24:18.989Z,45.11
2016-09-01T02:24:53.292Z,45.23
2016-09-01T02:25:27.577Z,45.11
2016-09-01T02:26:01.884Z,45.11
2016-09-01T02:26:36.201Z,45.11
2016-09-01T02:27:10.481Z,45.5
2016-09-01T02:27:44.768Z,45.69
2016-09-01T02:28:19.072Z,45.59
2016-09-01T02:28:53.383Z,45.59
2016-09-01T02:29:27.664Z,45.5
2016-09-01T02:30:01.962Z,45.59
2016-09-01T02:30:36.243Z,45.59
2016-09-01T02:31:10.532Z,45.59
2016-09-01T02:31:44.815Z,45.59
2016-09-01T02:32:19.143Z,45.5
2016-09-01T02:32:53.421Z,45.59
2016-09-01T02:33:27.724Z,45.5
2016-09-01T02:34:02.015Z,45.59
2016-09-01T02:34:36.296Z,45.59
2016-09-01T02:35:10.584Z,45.59
2016-09-01T02:35:44.896Z,45.5
2016-09-01T02:36:19.209Z,45.89
2016-09-01T02:36:54.437Z,45.69
2016-09-01T02:37:28.716Z,45.5
2016-09-01T02:38:03.015Z,45.59
2016-09-01T02:38:37.337Z,45.69
2016-09-01T02:39:11.639Z,45.79
2016-09-01T02:39:45.971Z,45.69
2016-09-01T02:40:20.829Z,45.5
2016-09-01T02:40:55.130Z,45.5
2016-09-01T02:41:29.450Z,45.79
2016-09-01T02:42:03.741Z,45.4
2016-09-01T02:42:38.019Z,45.59
2016-09-01T02:43:12.318Z,45.79
2016-09-01T02:43:46.606Z,45.5
2016-09-01T02:44:20.918Z,45.79
2016-09-01T02:44:55.205Z,45.4
2016-09-01T02:45:29.508Z,45.69
2016-09-01T02:46:03.799Z,45.69
2016-09-01T02:46:38.088Z,45.69
2016-09-01T02:47:12.411Z,45.69
2016-09-01T02:47:46.722Z,45.4
2016-09-01T02:48:21.017Z,45.79
2016-09-01T02:48:55.315Z,45.4
2016-09-01T02:49:29.601Z,45.5
2016-09-01T02:50:03.902Z,45.69
2016-09-01T02:50:38.194Z,45.79
2016-09-01T02:51:12.493Z,45.4
2016-09-01T02:51:46.769Z,45.79
2016-09-01T02:52:21.067Z,45.4
2016-09-01T02:52:55.359Z,45.79
2016-09-01T02:53:29.647Z,45.79
2016-09-01T02:54:03.938Z,45.5
2016-09-01T02:54:38.231Z,45.69
2016-09-01T02:55:12.539Z,45.79
2016-09-01T02:55:46.833Z,45.4
2016-09-01T02:56:21.125Z,45.4
2016-09-01T02:56:55.422Z,45.4
2016-09-01T02:57:29.724Z,45.69
2016-09-01T02:58:04.018Z,45.79
2016-09-01T02:58:38.321Z,45.31
2016-09-01T02:59:12.623Z,45.4
2016-09-01T02:59:46.913Z,45.31
2016-09-01T03:00:21.205Z,45.89
2016-09-01T03:00:55.586Z,45.31
2016-09-01T03:01:29.869Z,45.89
2016-09-01T03:02:04.150Z,45.21
2016-09-01T03:02:38.431Z,45.31
2016-09-01T03:03:12.731Z,45.89
2016-09-01T03:03:47.043Z,45.89
2016-09-01T03:04:21.323Z,45.4
2016-09-01T03:04:55.650Z,45.21
2016-09-01T03:05:29.948Z,45.31
2016-09-01T03:06:04.228Z,45.4
2016-09-01T03:06:38.529Z,45.98
2016-09-01T03:07:12.832Z,45.89
2016-09-01T03:07:47.127Z,45.4
2016-09-01T03:08:21.410Z,45.89
2016-09-01T03:08:55.713Z,45.31
2016-09-01T03:09:30.001Z,46.08
2016-09-01T03:10:04.302Z,45.69
2016-09-01T03:10:38.586Z,45.5
2016-09-01T03:11:12.888Z,45.4
2016-09-01T03:11:47.184Z,46.08
2016-09-01T03:12:21.489Z,45.59
2016-09-01T03:12:55.779Z,45.5
2016-09-01T03:13:30.073Z,45.59
2016-09-01T03:14:04.377Z,45.79
2016-09-01T03:14:38.670Z,46.17
2016-09-01T03:15:12.954Z,46.27
2016-09-01T03:15:47.253Z,46.27
2016-09-01T03:16:21.561Z,45.59
2016-09-01T03:16:55.866Z,46.37
2016-09-01T03:17:30.166Z,45.69
2016-09-01T03:18:04.475Z,46.37
2016-09-01T03:18:38.760Z,45.59
2016-09-01T03:19:13.048Z,46.47
2016-09-01T03:19:47.339Z,45.79
2016-09-01T03:20:21.634Z,45.89
2016-09-01T03:20:56.041Z,45.69
2016-09-01T03:21:30.318Z,45.89
2016-09-01T03:22:04.623Z,45.69
2016-09-01T03:22:38.934Z,45.59
2016-09-01T03:23:13.233Z,45.79
2016-09-01T03:23:47.524Z,45.79
2016-09-01T03:24:21.801Z,45.79
2016-09-01T03:24:56.095Z,45.79
2016-09-01T03:25:30.372Z,45.69
2016-09-01T03:26:04.660Z,45.79
2016-09-01T03:26:38.960Z,45.59
2016-09-01T03:27:13.257Z,45.79
2016-09-01T03:27:47.528Z,45.69
2016-09-01T03:28:21.826Z,45.59
2016-09-01T03:28:56.118Z,45.69
2016-09-01T03:29:30.400Z,45.59
2016-09-01T03:30:04.694Z,45.69
2016-09-01T03:30:38.990Z,45.57
2016-09-01T03:31:13.335Z,45.69
2016-09-01T03:31:47.642Z,45.5
2016-09-01T03:32:21.940Z,45.57
2016-09-01T03:32:56.216Z,45.76
2016-09-01T03:33:30.495Z,45.69
2016-09-01T03:34:04.794Z,45.79
2016-09-01T03:34:39.098Z,45.79
2016-09-01T03:35:13.404Z,45.59
2016-09-01T03:35:47.698Z,45.5
2016-09-01T03:36:21.988Z,45.69
2016-09-01T03:36:56.294Z,45.59
2016-09-01T03:37:30.584Z,45.59
2016-09-01T03:38:04.857Z,45.67
2016-09-01T03:38:39.161Z,45.76
2016-09-01T03:39:13.444Z,45.76
2016-09-01T03:39:47.735Z,45.98
2016-09-01T03:40:22.024Z,45.79
2016-09-01T03:40:56.322Z,45.79
2016-09-01T03:41:30.606Z,45.59
2016-09-01T03:42:04.903Z,45.86
2016-09-01T03:42:39.192Z,45.76
2016-09-01T03:43:13.481Z,45.76
2016-09-01T03:43:47.756Z,45.57
2016-09-01T03:44:22.074Z,45.76
2016-09-01T03:44:56.370Z,45.67
2016-09-01T03:45:30.646Z,45.86
2016-09-01T03:46:04.929Z,45.57
2016-09-01T03:46:39.220Z,46.06
2016-09-01T03:47:13.515Z,45.76
2016-09-01T03:47:47.816Z,45.67
2016-09-01T03:48:22.120Z,45.76
2016-09-01T03:48:56.424Z,45.67
2016-09-01T03:49:30.722Z,45.86
2016-09-01T03:50:05.040Z,46.06
2016-09-01T03:50:39.591Z,45.67
2016-09-01T03:51:13.893Z,45.76
2016-09-01T03:51:48.213Z,45.86
2016-09-01T03:52:22.487Z,45.76
2016-09-01T03:52:56.762Z,45.86
2016-09-01T03:53:31.036Z,45.96
2016-09-01T03:54:05.327Z,45.86
2016-09-01T03:54:39.626Z,45.86
2016-09-01T03:55:13.938Z,45.86
2016-09-01T03:55:48.256Z,45.96
2016-09-01T03:56:22.563Z,45.86
2016-09-01T03:56:56.872Z,45.76
2016-09-01T03:57:31.156Z,45.96
2016-09-01T03:58:05.459Z,45.96
2016-09-01T03:58:39.764Z,45.86
2016-09-01T03:59:14.055Z,45.96
2016-09-01T03:59:48.367Z,46.06
2016-09-01T04:00:22.668Z,46.06
2016-09-01T04:00:56.954Z,45.86
2016-09-01T04:01:31.245Z,45.76
2016-09-01T04:02:05.536Z,45.67
2016-09-01T04:02:39.833Z,45.96
2016-09-01T04:03:14.136Z,46.06
2016-09-01T04:03:48.428Z,46.54
2016-09-01T04:04:22.725Z,46.54
2016-09-01T04:04:57.009Z,45.86
2016-09-01T04:05:31.293Z,46.34
2016-09-01T04:06:05.597Z,46.54
2016-09-01T04:06:39.882Z,46.54
2016-09-01T04:07:14.235Z,46.34
2016-09-01T04:07:48.534Z,46.44
2016-09-01T04:08:22.839Z,46.15
2016-09-01T04:08:57.129Z,46.44
2016-09-01T04:09:31.412Z,46.15
2016-09-01T04:10:05.725Z,46.34
2016-09-01T04:10:40.035Z,46.44
2016-09-01T04:11:14.326Z,46.25
2016-09-01T04:11:48.620Z,46.34
2016-09-01T04:12:22.895Z,46.44
2016-09-01T04:12:57.206Z,46.44
2016-09-01T04:13:31.489Z,46.44
2016-09-01T04:14:05.791Z,46.34
2016-09-01T04:14:40.112Z,46.06
2016-09-01T04:15:14.411Z,46.34
2016-09-01T04:15:48.714Z,45.86
2016-09-01T04:16:23.025Z,46.34
2016-09-01T04:16:57.349Z,46.34
2016-09-01T04:17:31.648Z,46.15
2016-09-01T04:18:05.936Z,46.25
2016-09-01T04:18:40.210Z,46.15
2016-09-01T04:19:14.516Z,45.86
2016-09-01T04:19:48.824Z,45.96
2016-09-01T04:20:23.119Z,46.34
2016-09-01T04:20:57.392Z,46.34
2016-09-01T04:21:31.673Z,46.06
2016-09-01T04:22:05.968Z,46.25
2016-09-01T04:22:40.260Z,46.34
2016-09-01T04:23:15.723Z,46.25
2016-09-01T04:23:50.022Z,46.34
2016-09-01T04:24:24.307Z,45.96
2016-09-01T04:24:58.602Z,46.44
2016-09-01T04:25:32.882Z,46.44
2016-09-01T04:26:07.179Z,45.86
2016-09-01T04:26:41.465Z,46.34
2016-09-01T04:27:15.752Z,46.34
2016-09-01T04:27:50.057Z,46.44
2016-09-01T04:28:24.348Z,46.34
2016-09-01T04:28:58.665Z,46.44
2016-09-01T04:29:32.971Z,46.44
2016-09-01T04:30:07.259Z,46.34
2016-09-01T04:30:41.549Z,46.25
2016-09-01T04:31:15.845Z,46.34
2016-09-01T04:31:50.126Z,46.34
2016-09-01T04:32:24.421Z,46.34
2016-09-01T04:32:58.714Z,46.34
2016-09-01T04:33:33.003Z,46.44
2016-09-01T04:34:07.298Z,46.44
2016-09-01T04:34:41.597Z,46.44
2016-09-01T04:35:16.097Z,46.44
2016-09-01T04:35:50.632Z,46.15
2016-09-01T04:36:24.921Z,46.25
2016-09-01T04:36:59.224Z,46.34
2016-09-01T04:37:33.503Z,46.54
2016-09-01T04:38:07.798Z,46.34
2016-09-01T04:38:42.095Z,46.34
2016-09-01T04:39:16.402Z,46.15
2016-09-01T04:39:50.701Z,46.15
2016-09-01T04:40:24.966Z,46.34
2016-09-01T04:40:59.250Z,46.44
2016-09-01T04:41:33.546Z,46.25
2016-09-01T04:42:07.832Z,46.25
2016-09-01T04:42:42.112Z,46.15
2016-09-01T04:43:16.405Z,46.54
2016-09-01T04:43:50.710Z,46.15
2016-09-01T04:44:25.005Z,46.25
2016-09-01T04:44:59.309Z,46.44
2016-09-01T04:45:33.598Z,46.44
2016-09-01T04:46:07.884Z,46.15
2016-09-01T04:46:42.182Z,46.64
2016-09-01T04:47:16.501Z,46.25
2016-09-01T04:47:50.792Z,46.54
2016-09-01T04:48:25.078Z,46.06
2016-09-01T04:48:59.390Z,46.64
2016-09-01T04:49:33.678Z,46.54
2016-09-01T04:50:07.971Z,46.54
2016-09-01T04:50:42.283Z,46.15
2016-09-01T04:51:16.574Z,46.34
2016-09-01T04:51:50.851Z,46.25
2016-09-01T04:52:25.169Z,46.25
2016-09-01T04:52:59.443Z,46.44
2016-09-01T04:53:33.731Z,46.34
2016-09-01T04:54:08.059Z,46.25
2016-09-01T04:54:42.361Z,46.34
2016-09-01T04:55:16.888Z,46.34
2016-09-01T04:55:51.229Z,46.34
2016-09-01T04:56:25.518Z,46.54
2016-09-01T04:56:59.814Z,46.06
2016-09-01T04:57:34.105Z,46.25
2016-09-01T04:58:08.404Z,46.25
2016-09-01T04:58:42.698Z,46.44
2016-09-01T04:59:17.122Z,46.34
2016-09-01T04:59:51.410Z,46.44
2016-09-01T05:00:25.721Z,46.06
2016-09-01T05:01:00.065Z,46.25
2016-09-01T05:01:34.364Z,46.06
2016-09-01T05:02:08.667Z,46.54
2016-09-01T05:02:42.951Z,46.06
2016-09-01T05:03:17.238Z,46.44
2016-09-01T05:03:51.536Z,46.64
2016-09-01T05:04:25.829Z,46.44
2016-09-01T05:05:00.134Z,46.25
2016-09-01T05:05:34.495Z,46.54
2016-09-01T05:06:08.790Z,46.15
2016-09-01T05:06:43.095Z,46.15
2016-09-01T05:07:17.378Z,46.54
2016-09-01T05:07:51.676Z,46.15
2016-09-01T05:08:25.960Z,46.25
2016-09-01T05:09:00.250Z,46.92
2016-09-01T05:09:34.559Z,46.06
2016-09-01T05:10:09.039Z,46.15
2016-09-01T05:10:43.349Z,46.06
2016-09-01T05:11:17.644Z,46.15
2016-09-01T05:11:51.957Z,46.15
2016-09-01T05:12:26.250Z,46.06
2016-09-01T05:13:00.550Z,46.44
2016-09-01T05:13:34.844Z,46.06
2016-09-01T05:14:09.131Z,46.06
2016-09-01T05:14:43.430Z,46.15
2016-09-01T05:15:17.725Z,46.15
2016-09-01T05:15:51.999Z,46.64
2016-09-01T05:16:26.656Z,46.15
2016-09-01T05:17:00.962Z,46.15
2016-09-01T05:17:35.241Z,46.15
2016-09-01T05:18:09.530Z,46.15
2016-09-01T05:18:43.820Z,46.15
2016-09-01T05:19:18.126Z,46.25
2016-09-01T05:19:52.416Z,46.73
2016-09-01T05:20:26.719Z,46.54
2016-09-01T05:21:01.009Z,46.34
2016-09-01T05:21:35.296Z,46.34
2016-09-01T05:22:10.798Z,46.44
2016-09-01T05:22:45.092Z,46.34
2016-09-01T05:23:19.378Z,46.15
2016-09-01T05:23:53.664Z,46.25
2016-09-01T05:24:27.969Z,46.44
2016-09-01T05:25:02.787Z,46.25
2016-09-01T05:25:37.073Z,46.25
2016-09-01T05:26:11.364Z,46.25
2016-09-01T05:26:45.654Z,46.34
2016-09-01T05:27:19.979Z,45.96
2016-09-01T05:27:54.460Z,46.54
2016-09-01T05:28:28.749Z,46.34
2016-09-01T05:29:03.053Z,46.15
2016-09-01T05:29:37.340Z,46.34
2016-09-01T05:30:11.647Z,46.34
2016-09-01T05:30:46.391Z,46.54
2016-09-01T05:31:20.800Z,46.06
2016-09-01T05:31:55.333Z,45.96
2016-09-01T05:32:29.622Z,45.96
2016-09-01T05:33:04.902Z,46.25
2016-09-01T05:33:39.543Z,45.96
2016-09-01T05:34:14.507Z,45.96
2016-09-01T05:34:49.806Z,46.25
2016-09-01T05:35:24.134Z,46.34
2016-09-01T05:35:58.542Z,46.06
2016-09-01T05:36:32.885Z,45.96
2016-09-01T05:37:07.212Z,46.34
2016-09-01T05:37:41.508Z,46.15
2016-09-01T05:38:15.993Z,46.06
2016-09-01T05:38:50.297Z,46.06
2016-09-01T05:39:24.578Z,46.06
2016-09-01T05:39:58.879Z,46.25
2016-09-01T05:40:33.191Z,46.15
2016-09-01T05:41:07.517Z,46.34
2016-09-01T05:41:41.834Z,46.06
2016-09-01T05:42:16.199Z,46.34
2016-09-01T05:42:51.169Z,46.15
2016-09-01T05:43:25.455Z,46.25
2016-09-01T05:43:59.793Z,46.44
2016-09-01T05:44:34.075Z,46.34
2016-09-01T05:45:08.371Z,45.96
2016-09-01T05:45:43.272Z,46.44
2016-09-01T05:46:17.567Z,46.54
2016-09-01T05:46:51.866Z,46.25
2016-09-01T05:47:26.163Z,46.34
2016-09-01T05:48:00.547Z,46.54
2016-09-01T05:48:34.910Z,46.34
2016-09-01T05:49:09.196Z,46.34
2016-09-01T05:49:43.486Z,46.34
2016-09-01T05:50:17.761Z,46.15
2016-09-01T05:50:52.053Z,46.25
2016-09-01T05:51:26.364Z,45.96
2016-09-01T05:52:00.655Z,46.15
2016-09-01T05:52:35.594Z,46.06
2016-09-01T05:53:10.214Z,46.34
2016-09-01T05:53:44.799Z,46.34
2016-09-01T05:54:19.364Z,46.54
2016-09-01T05:54:53.937Z,46.44
2016-09-01T05:55:28.476Z,46.06
2016-09-01T05:56:03.062Z,46.34
2016-09-01T05:56:37.628Z,46.25
2016-09-01T05:57:12.205Z,46.06
2016-09-01T05:57:46.785Z,46.06
2016-09-01T05:58:21.311Z,46.25
2016-09-01T05:58:55.621Z,46.06
2016-09-01T05:59:29.935Z,46.25
2016-09-01T06:00:04.338Z,45.96
2016-09-01T06:00:39.776Z,46.25
2016-09-01T06:01:14.076Z,46.25
2016-09-01T06:01:48.368Z,46.15
2016-09-01T06:02:22.705Z,45.98
2016-09-01T06:02:56.999Z,46.08
2016-09-01T06:03:31.297Z,46.25
2016-09-01T06:04:05.576Z,46.17
2016-09-01T06:04:39.860Z,46.08
2016-09-01T06:05:14.171Z,46.17
2016-09-01T06:05:48.470Z,46.15
2016-09-01T06:06:22.763Z,46.17
2016-09-01T06:06:57.056Z,46.27
2016-09-01T06:07:31.361Z,46.17
2016-09-01T06:08:05.682Z,46.17
2016-09-01T06:08:39.969Z,46.66
2016-09-01T06:09:14.263Z,46.08
2016-09-01T06:09:48.562Z,46.17
2016-09-01T06:10:22.885Z,46.66
2016-09-01T06:10:57.214Z,46.27
2016-09-01T06:11:32.031Z,46.56
2016-09-01T06:12:06.338Z,46.75
2016-09-01T06:12:40.631Z,46.27
2016-09-01T06:13:14.952Z,46.27
2016-09-01T06:13:49.256Z,46.27
2016-09-01T06:14:24.693Z,46.17
2016-09-01T06:14:59.652Z,46.08
2016-09-01T06:15:33.967Z,46.27
2016-09-01T06:16:08.276Z,46.08
2016-09-01T06:16:42.574Z,46.66
2016-09-01T06:17:16.867Z,46.66
2016-09-01T06:17:52.178Z,46.37
2016-09-01T06:18:26.463Z,46.75
2016-09-01T06:19:00.770Z,46.27
2016-09-01T06:19:35.058Z,46.2
2016-09-01T06:20:09.509Z,46.56
2016-09-01T06:20:44.259Z,46
2016-09-01T06:21:18.637Z,46.27
2016-09-01T06:21:53.346Z,46.39
2016-09-01T06:22:28.548Z,46.3
2016-09-01T06:23:03.023Z,46.39
2016-09-01T06:23:37.300Z,46.27
2016-09-01T06:24:11.599Z,46.58
2016-09-01T06:24:45.887Z,46.3
2016-09-01T06:25:20.321Z,46.3
2016-09-01T06:25:54.625Z,46.49
2016-09-01T06:26:29.803Z,46.49
2016-09-01T06:27:04.121Z,46.39
2016-09-01T06:27:38.410Z,46.3
2016-09-01T06:28:12.697Z,46.39
2016-09-01T06:28:47.052Z,46.39
2016-09-01T06:29:21.357Z,46.2
2016-09-01T06:29:55.703Z,46.49
2016-09-01T06:30:30.032Z,46.49
2016-09-01T06:31:05.050Z,46.39
2016-09-01T06:31:39.363Z,46.49
2016-09-01T06:32:13.885Z,46.3
2016-09-01T06:32:48.597Z,46.49
2016-09-01T06:33:22.873Z,46.2
2016-09-01T06:33:57.187Z,46.39
2016-09-01T06:34:31.482Z,46.51
2016-09-01T06:35:05.782Z,46.2
2016-09-01T06:35:40.250Z,46.51
2016-09-01T06:36:14.604Z,46.42
2016-09-01T06:36:48.915Z,46.42
2016-09-01T06:37:23.220Z,46.42
2016-09-01T06:37:57.523Z,46.42
2016-09-01T06:38:31.824Z,46.51
2016-09-01T06:39:06.289Z,46.32
2016-09-01T06:39:40.617Z,46.51
2016-09-01T06:40:14.905Z,46.42
2016-09-01T06:40:49.209Z,46.32
2016-09-01T06:41:23.502Z,46.42
2016-09-01T06:41:57.814Z,46.42
2016-09-01T06:42:32.115Z,45.93
2016-09-01T06:43:06.415Z,46.03
2016-09-01T06:43:40.700Z,46.22
2016-09-01T06:44:15.234Z,46.22
2016-09-01T06:44:49.502Z,46.51
2016-09-01T06:45:24.341Z,46.22
2016-09-01T06:45:58.640Z,46.12
2016-09-01T06:46:32.965Z,46.51
2016-09-01T06:47:07.271Z,46.42
2016-09-01T06:47:41.578Z,46.44
2016-09-01T06:48:15.888Z,46.22
2016-09-01T06:48:50.194Z,46.53
2016-09-01T06:49:24.495Z,46.25
2016-09-01T06:49:59.289Z,46.63
2016-09-01T06:50:33.624Z,46.53
2016-09-01T06:51:07.913Z,46.63
2016-09-01T06:51:42.228Z,46.53
2016-09-01T06:52:16.518Z,45.95
2016-09-01T06:52:50.815Z,46.53
2016-09-01T06:53:25.171Z,46.15
2016-09-01T06:54:00.205Z,46.63
2016-09-01T06:54:34.510Z,45.86
2016-09-01T06:55:08.804Z,46.34
2016-09-01T06:55:43.786Z,46.34
2016-09-01T06:56:18.053Z,46.53
2016-09-01T06:56:52.362Z,46.15
2016-09-01T06:57:26.654Z,45.86
2016-09-01T06:58:00.949Z,46.53
2016-09-01T06:58:35.245Z,46.44
2016-09-01T06:59:09.553Z,45.88
2016-09-01T06:59:43.845Z,45.88
2016-09-01T07:00:18.142Z,46.36
2016-09-01T07:00:52.452Z,46.44
2016-09-01T07:01:26.754Z,46.26
2016-09-01T07:02:01.169Z,46.66
2016-09-01T07:02:35.472Z,46.36
2016-09-01T07:03:09.769Z,45.95
2016-09-01T07:03:44.065Z,46.36
2016-09-01T07:04:18.356Z,46.46
2016-09-01T07:04:52.770Z,46.36
2016-09-01T07:05:27.060Z,45.98
2016-09-01T07:06:01.332Z,46.66
2016-09-01T07:06:36.208Z,46.17
2016-09-01T07:07:11.321Z,46.08
2016-09-01T07:07:45.625Z,46.08
2016-09-01T07:08:19.942Z,46.84
2016-09-01T07:08:54.225Z,46.08
2016-09-01T07:09:28.511Z,46.75
2016-09-01T07:10:02.820Z,46.94
2016-09-01T07:10:37.193Z,46.08
2016-09-01T07:11:11.489Z,46.17
2016-09-01T07:11:45.777Z,46.09
2016-09-01T07:12:20.066Z,46.09
2016-09-01T07:12:54.507Z,45.98
2016-09-01T07:13:28.791Z,45.9
2016-09-01T07:14:03.534Z,46.09
2016-09-01T07:14:37.817Z,46
2016-09-01T07:15:12.114Z,45.9
2016-09-01T07:15:46.420Z,45.98
2016-09-01T07:16:20.777Z,46
2016-09-01T07:16:55.142Z,46.09
2016-09-01T07:17:29.432Z,46.08
2016-09-01T07:18:03.740Z,46.97
2016-09-01T07:18:38.036Z,46.58
2016-09-01T07:19:12.333Z,46
2016-09-01T07:19:46.628Z,47.06
2016-09-01T07:20:20.900Z,46.67
2016-09-01T07:20:55.303Z,46.67
2016-09-01T07:21:29.625Z,46.67
2016-09-01T07:22:03.999Z,45.9
2016-09-01T07:22:38.408Z,45.9
2016-09-01T07:23:13.576Z,46.09
2016-09-01T07:23:47.912Z,46.09